Time;durP1;ratioP1;P1;durP2;ratioP2;P2;SDS_P1;SDS_P2;PMS_P1;PMS_P2;Temp;Humidity;BMP_temperature;BMP_pressure;BME280_temperature;BME280_humidity;BME280_pressure;Samples;Min_cycle;Max_cycle;Signal;HPM_P1;HPM_P2
2022/05/27 00:00:22;;;;;;;2.13;0.75;;;24.90;44.80;;;;;;5043149;28;20036;-50
2022/05/27 00:02:50;;;;;;;1.73;0.75;;;24.90;44.80;;;;;;5042048;28;20125;-50
2022/05/27 00:05:17;;;;;;;1.90;0.60;;;24.90;44.80;;;;;;5042356;28;20024;-48
2022/05/27 00:07:43;;;;;;;1.63;0.65;;;24.90;44.90;;;;;;5042404;28;20146;-48
2022/05/27 00:10:12;;;;;;;1.20;0.52;;;24.90;44.90;;;;;;5043463;28;20064;-51
2022/05/27 00:12:38;;;;;;;1.17;0.40;;;24.90;44.90;;;;;;5041891;28;20499;-50
2022/05/27 00:15:05;;;;;;;1.42;0.60;;;24.90;44.90;;;;;;5043608;28;20025;-49
2022/05/27 00:17:31;;;;;;;1.23;0.52;;;24.90;44.90;;;;;;5043728;28;20041;-50
2022/05/27 00:19:57;;;;;;;1.52;0.65;;;24.90;45.00;;;;;;5043723;28;20033;-48
2022/05/27 00:22:22;;;;;;;1.45;0.50;;;24.90;45.00;;;;;;5047214;28;20028;-50
2022/05/27 00:24:48;;;;;;;2.13;0.73;;;24.90;45.00;;;;;;5047609;28;20032;-49
2022/05/27 00:27:14;;;;;;;1.85;0.90;;;24.90;44.90;;;;;;5047869;28;20021;-48
2022/05/27 00:29:40;;;;;;;1.38;0.47;;;24.80;44.80;;;;;;5047622;28;20392;-49
2022/05/27 00:32:06;;;;;;;2.13;0.70;;;24.80;44.70;;;;;;5046909;28;20120;-49
2022/05/27 00:34:32;;;;;;;2.30;0.70;;;24.80;44.70;;;;;;5046703;28;20032;-49
2022/05/27 00:37:03;;;;;;;2.10;0.70;;;24.80;44.70;;;;;;5046963;28;20048;-49
2022/05/27 00:39:28;;;;;;;0.90;0.40;;;24.80;44.70;;;;;;5047237;28;20029;-49
2022/05/27 00:41:54;;;;;;;1.10;0.40;;;24.80;44.70;;;;;;5045084;28;20084;-49
2022/05/27 00:44:20;;;;;;;1.02;0.40;;;24.80;44.70;;;;;;5046308;28;20044;-50
2022/05/27 00:46:46;;;;;;;0.95;0.50;;;24.80;44.60;;;;;;5047138;28;20021;-48
2022/05/27 00:49:26;;;;;;;1.60;0.50;;;24.80;44.60;;;;;;5046924;28;20025;-49
2022/05/27 00:52:11;;;;;;;1.50;0.60;;;24.80;44.60;;;;;;5047071;28;20558;-47
2022/05/27 00:54:37;;;;;;;0.80;0.40;;;24.80;44.60;;;;;;5045886;28;20134;-48
2022/05/27 00:57:14;;;;;;;1.73;0.50;;;24.80;44.70;;;;;;5043097;28;20033;-48
2022/05/27 00:59:50;;;;;;;1.55;0.50;;;24.80;44.70;;;;;;5045609;28;20025;-48
2022/05/27 01:02:16;;;;;;;1.95;0.60;;;24.80;44.80;;;;;;5045412;28;20052;-48
2022/05/27 01:04:43;;;;;;;1.30;0.50;;;24.80;44.70;;;;;;5046944;28;20022;-49
2022/05/27 01:07:09;;;;;;;1.42;0.50;;;24.80;44.80;;;;;;5046697;28;20013;-49
2022/05/27 01:09:38;;;;;;;1.20;0.60;;;24.80;44.90;;;;;;5046836;28;20473;-46
2022/05/27 01:12:40;;;;;;;1.42;0.55;;;24.80;44.90;;;;;;5044558;28;20396;-49
2022/05/27 01:15:15;;;;;;;0.90;0.47;;;24.80;44.80;;;;;;5045585;28;20013;-48
2022/05/27 01:18:02;;;;;;;1.45;0.65;;;24.80;44.80;;;;;;5044736;28;20701;-49
2022/05/27 01:20:38;;;;;;;1.10;0.43;;;24.80;44.70;;;;;;5044441;28;20033;-48
2022/05/27 01:23:31;;;;;;;1.63;0.50;;;24.80;44.70;;;;;;5043701;28;20023;-48
2022/05/27 01:26:19;;;;;;;0.90;0.38;;;24.80;44.70;;;;;;5045924;28;21014;-49
2022/05/27 01:28:53;;;;;;;1.95;0.82;;;24.80;44.80;;;;;;5045875;28;20124;-47
2022/05/27 01:31:32;;;;;;;1.20;0.47;;;24.80;44.60;;;;;;5045858;28;20033;-49
2022/05/27 01:34:17;;;;;;;1.50;0.57;;;24.70;44.70;;;;;;5042780;28;20119;-48
2022/05/27 01:36:46;;;;;;;1.02;0.40;;;24.70;44.70;;;;;;5045813;28;20025;-48
2022/05/27 01:39:33;;;;;;;1.85;0.60;;;24.70;44.70;;;;;;5028062;28;20642;-49
2022/05/27 01:42:26;;;;;;;1.23;0.40;;;24.70;44.70;;;;;;5046001;28;20923;-48
2022/05/27 01:45:01;;;;;;;0.90;0.45;;;24.70;44.70;;;;;;5044417;28;20055;-48
2022/05/27 01:47:48;;;;;;;1.10;0.60;;;24.70;44.70;;;;;;5044427;28;20021;-49
2022/05/27 01:50:24;;;;;;;0.75;0.43;;;24.70;44.70;;;;;;5045821;28;20021;-48
2022/05/27 01:52:55;;;;;;;0.77;0.40;;;24.70;44.70;;;;;;5044179;28;20035;-47
2022/05/27 01:55:35;;;;;;;0.95;0.50;;;24.70;44.70;;;;;;5045585;28;20075;-49
2022/05/27 01:58:07;;;;;;;0.90;0.60;;;24.70;44.70;;;;;;5043581;28;20021;-48
2022/05/27 02:00:35;;;;;;;1.42;0.57;;;24.70;44.80;;;;;;5043214;28;20108;-48
2022/05/27 02:03:10;;;;;;;0.70;0.30;;;24.70;44.70;;;;;;5044760;28;20650;-49
2022/05/27 02:05:51;;;;;;;1.08;0.40;;;24.70;44.60;;;;;;5044510;28;20040;-48
2022/05/27 02:08:23;;;;;;;1.30;0.50;;;24.70;44.60;;;;;;5044031;28;20029;-49
2022/05/27 02:11:03;;;;;;;1.13;0.50;;;24.70;44.60;;;;;;5045493;28;20032;-49
2022/05/27 02:13:34;;;;;;;0.77;0.30;;;24.70;44.60;;;;;;5042300;28;20489;-49
2022/05/27 02:16:01;;;;;;;0.50;0.30;;;24.70;44.70;;;;;;5045467;28;20170;-48
2022/05/27 02:18:38;;;;;;;1.10;0.52;;;24.70;44.60;;;;;;5045715;28;20033;-49
2022/05/27 02:21:26;;;;;;;1.27;0.50;;;24.70;44.70;;;;;;5044718;28;20025;-54
2022/05/27 02:24:02;;;;;;;0.70;0.40;;;24.70;44.70;;;;;;5044138;28;20025;-49
2022/05/27 02:26:32;;;;;;;1.00;0.43;;;24.70;44.70;;;;;;5044201;28;20040;-50
2022/05/27 02:29:12;;;;;;;1.58;0.75;;;24.70;44.70;;;;;;5043655;28;20069;-49
2022/05/27 02:31:43;;;;;;;1.30;0.50;;;24.70;44.70;;;;;;5044133;28;20028;-49
2022/05/27 02:37:12;;;;;;;2.08;0.50;;;24.60;44.60;;;;;;5045199;28;20254;-48
2022/05/27 02:39:38;;;;;;;1.42;0.40;;;24.70;44.70;;;;;;5045046;28;20059;-48
2022/05/27 02:42:19;;;;;;;1.45;0.50;;;24.70;44.70;;;;;;5026200;28;20029;-49
2022/05/27 02:45:09;;;;;;;1.05;0.45;;;24.70;44.80;;;;;;5044519;28;20056;-47
2022/05/27 02:47:40;;;;;;;0.82;0.35;;;24.60;44.60;;;;;;5043384;28;20025;-48
2022/05/27 02:50:40;;;;;;;0.85;0.50;;;24.70;44.60;;;;;;5045007;28;20100;-48
2022/05/27 02:53:14;;;;;;;1.08;0.40;;;24.60;44.60;;;;;;5044206;28;20017;-48
2022/05/27 02:56:19;;;;;;;1.27;0.40;;;24.70;44.60;;;;;;5044353;28;20033;-49
2022/05/27 02:58:45;;;;;;;0.60;0.40;;;24.60;44.50;;;;;;5043585;28;20029;-48
2022/05/27 03:01:10;;;;;;;0.90;0.43;;;24.60;44.50;;;;;;5044369;28;20644;-48
2022/05/27 03:03:37;;;;;;;0.70;0.38;;;24.60;44.50;;;;;;5044271;28;20017;-48
2022/05/27 03:06:21;;;;;;;1.02;0.50;;;24.60;44.60;;;;;;5043122;28;20021;-49
2022/05/27 03:09:14;;;;;;;0.90;0.30;;;24.60;44.50;;;;;;5044852;28;20565;-48
2022/05/27 03:11:52;;;;;;;1.17;0.30;;;24.60;44.50;;;;;;5042606;28;20021;-48
2022/05/27 03:14:51;;;;;;;0.70;0.40;;;24.60;44.50;;;;;;5043615;28;20695;-49
2022/05/27 03:17:47;;;;;;;1.20;0.45;;;24.60;44.50;;;;;;5043743;28;20100;-48
2022/05/27 03:20:32;;;;;;;1.00;0.50;;;24.60;44.60;;;;;;5043664;28;20064;-48
2022/05/27 03:23:03;;;;;;;0.95;0.50;;;24.60;44.50;;;;;;5044259;28;20276;-49
2022/05/27 03:25:29;;;;;;;1.23;0.40;;;24.60;44.60;;;;;;5041736;28;20044;-48
2022/05/27 03:28:07;;;;;;;0.95;0.55;;;24.60;44.60;;;;;;5041538;28;20539;-48
2022/05/27 03:30:42;;;;;;;1.80;0.60;;;24.60;44.60;;;;;;5042812;28;20028;-49
2022/05/27 03:33:23;;;;;;;1.02;0.40;;;24.60;44.50;;;;;;5042354;28;20028;-48
2022/05/27 03:35:59;;;;;;;0.68;0.30;;;24.60;44.60;;;;;;5041524;28;20045;-49
2022/05/27 03:38:41;;;;;;;1.23;0.57;;;24.60;44.60;;;;;;5041897;28;20033;-48
2022/05/27 03:41:10;;;;;;;;;;;24.60;44.50;;;;;;5044029;28;20406;-47
2022/05/27 03:43:38;;;;;;;0.70;0.35;;;24.60;44.40;;;;;;5041403;28;19908;-49
2022/05/27 03:46:05;;;;;;;1.35;0.50;;;24.60;44.50;;;;;;5043920;28;20426;-48
2022/05/27 03:48:34;;;;;;;1.30;0.50;;;24.50;44.50;;;;;;5043456;28;20115;-48
2022/05/27 03:51:09;;;;;;;0.57;0.30;;;24.60;44.50;;;;;;5043624;28;20074;-47
2022/05/27 03:56:18;;;;;;;1.23;0.47;;;24.50;44.50;;;;;;5042944;28;20059;-47
2022/05/27 03:58:44;;;;;;;1.02;0.60;;;24.50;44.60;;;;;;5043662;28;20021;-49
2022/05/27 04:01:10;;;;;;;1.38;0.38;;;24.50;44.60;;;;;;5043324;28;20063;-48
2022/05/27 04:03:35;;;;;;;1.08;0.50;;;24.60;44.60;;;;;;5042996;28;20025;-48
2022/05/27 04:06:01;;;;;;;4.68;0.68;;;24.50;44.60;;;;;;5043490;28;20473;-47
2022/05/27 04:08:27;;;;;;;0.90;0.32;;;24.50;44.60;;;;;;5043595;28;20546;-49
2022/05/27 04:10:53;;;;;;;1.02;0.38;;;24.60;44.60;;;;;;5043786;28;20020;-49
2022/05/27 04:13:18;;;;;;;1.00;0.40;;;24.60;44.60;;;;;;5043129;28;20021;-48
2022/05/27 04:15:44;;;;;;;1.80;0.60;;;24.50;44.50;;;;;;5043876;28;20028;-49
2022/05/27 04:18:10;;;;;;;1.25;0.47;;;24.60;44.60;;;;;;5025005;28;20040;-48
2022/05/27 04:20:35;;;;;;;1.10;0.40;;;24.50;44.60;;;;;;5043406;28;20082;-49
2022/05/27 04:23:01;;;;;;;1.33;0.40;;;24.50;44.60;;;;;;5041633;28;20028;-48
2022/05/27 04:25:27;;;;;;;1.40;0.40;;;24.60;44.50;;;;;;5043533;28;20044;-48
2022/05/27 04:27:53;;;;;;;1.63;0.57;;;24.60;44.60;;;;;;5043300;28;20488;-48
2022/05/27 04:30:19;;;;;;;1.23;0.45;;;24.50;44.50;;;;;;5043262;28;20028;-48
2022/05/27 04:32:45;;;;;;;1.08;0.47;;;24.50;44.50;;;;;;5041592;28;20088;-47
2022/05/27 04:35:10;;;;;;;0.55;0.40;;;24.50;44.50;;;;;;5043420;28;20158;-48
2022/05/27 04:37:36;;;;;;;1.23;0.50;;;24.50;44.50;;;;;;5042066;28;20037;-48
2022/05/27 04:40:04;;;;;;;0.57;0.30;;;24.50;44.50;;;;;;5043015;28;20025;-48
2022/05/27 04:42:30;;;;;;;0.65;0.40;;;24.60;44.50;;;;;;5040941;28;20700;-47
2022/05/27 04:44:56;;;;;;;1.25;0.55;;;24.50;44.40;;;;;;5042724;28;20025;-48
2022/05/27 04:47:22;;;;;;;1.20;0.55;;;24.60;44.40;;;;;;5042773;28;20025;-48
2022/05/27 04:49:50;;;;;;;1.30;0.40;;;24.50;44.40;;;;;;5042942;28;20082;-48
2022/05/27 04:52:27;;;;;;;1.52;0.50;;;24.60;44.50;;;;;;5042961;28;20445;-48
2022/05/27 04:54:54;;;;;;;0.60;0.38;;;24.50;44.50;;;;;;5042769;28;20078;-49
2022/05/27 04:57:23;;;;;;;2.13;0.68;;;24.50;44.50;;;;;;5042478;28;20106;-48
2022/05/27 04:59:52;;;;;;;0.82;0.38;;;24.60;44.50;;;;;;5042822;28;20725;-48
2022/05/27 05:02:20;;;;;;;0.82;0.40;;;24.60;44.50;;;;;;5041745;28;20044;-48
2022/05/27 05:04:47;;;;;;;1.17;0.52;;;24.60;44.50;;;;;;5042707;28;20097;-49
2022/05/27 05:07:13;;;;;;;1.38;0.50;;;24.50;44.50;;;;;;5042685;28;20082;-49
2022/05/27 05:09:41;;;;;;;0.93;0.50;;;24.50;44.50;;;;;;5046483;28;20017;-48
2022/05/27 05:12:09;;;;;;;1.20;0.35;;;24.50;44.50;;;;;;5045711;28;20028;-48
2022/05/27 05:14:35;;;;;;;1.35;0.57;;;24.60;44.50;;;;;;5045560;28;20017;-48
2022/05/27 05:17:01;;;;;;;1.17;0.50;;;24.50;44.50;;;;;;5045781;28;20031;-48
2022/05/27 05:19:27;;;;;;;0.63;0.40;;;24.60;44.50;;;;;;5046339;28;20037;-48
2022/05/27 05:21:53;;;;;;;1.10;0.40;;;24.50;44.50;;;;;;5046303;28;20436;-49
2022/05/27 05:24:19;;;;;;;2.35;0.50;;;24.60;44.50;;;;;;5044863;28;20591;-48
2022/05/27 05:26:46;;;;;;;0.80;0.40;;;24.60;44.50;;;;;;5026458;28;20147;-47
2022/05/27 05:29:12;;;;;;;1.30;0.50;;;24.50;44.80;;;;;;5045571;28;20660;-47
2022/05/27 05:31:38;;;;;;;0.93;0.43;;;24.60;45.50;;;;;;5044507;28;20029;-48
2022/05/27 05:34:03;;;;;;;2.03;0.70;;;24.60;45.60;;;;;;5043756;28;20667;-47
2022/05/27 05:36:30;;;;;;;1.70;0.60;;;24.60;45.80;;;;;;5045606;28;20028;-47
2022/05/27 05:38:57;;;;;;;1.20;0.57;;;24.60;45.80;;;;;;5045722;28;20033;-47
2022/05/27 05:41:32;;;;;;;1.88;0.32;;;24.60;45.70;;;;;;5045337;28;20048;-48
2022/05/27 05:43:58;;;;;;;1.35;0.55;;;24.60;45.40;;;;;;5044299;28;20463;-48
2022/05/27 05:46:26;;;;;;;1.50;0.55;;;24.60;45.30;;;;;;5044915;28;20110;-50
2022/05/27 05:48:52;;;;;;;1.88;0.80;;;24.70;45.90;;;;;;5027023;28;20021;-48
2022/05/27 05:51:20;;;;;;;0.93;0.50;;;24.70;45.90;;;;;;5039810;28;20036;-48
2022/05/27 05:53:46;;;;;;;1.15;0.50;;;24.70;45.80;;;;;;5043635;28;20036;-49
2022/05/27 05:56:11;;;;;;;1.60;0.40;;;24.70;45.80;;;;;;5044111;28;20041;-48
2022/05/27 05:58:37;;;;;;;1.77;0.65;;;24.70;45.70;;;;;;5042218;28;20041;-49
2022/05/27 06:01:03;;;;;;;1.10;0.40;;;24.70;45.60;;;;;;5042865;28;20459;-48
2022/05/27 06:03:29;;;;;;;1.05;0.50;;;24.70;45.50;;;;;;5045347;28;20067;-48
2022/05/27 06:05:55;;;;;;;2.13;0.50;;;24.70;45.40;;;;;;5045597;28;20484;-47
2022/05/27 06:08:21;;;;;;;0.68;0.38;;;24.70;45.40;;;;;;5045074;28;20021;-48
2022/05/27 06:10:48;;;;;;;0.75;0.35;;;24.70;45.30;;;;;;5044688;28;20025;-47
2022/05/27 06:13:15;;;;;;;1.15;0.45;;;24.70;45.30;;;;;;5044463;28;20108;-48
2022/05/27 06:15:41;;;;;;;2.60;0.65;;;24.70;45.40;;;;;;5028964;28;20055;-49
2022/05/27 06:18:07;;;;;;;1.00;0.40;;;24.80;45.30;;;;;;5040670;28;20466;-48
2022/05/27 06:20:35;;;;;;;2.13;0.50;;;24.70;45.40;;;;;;5041845;28;20032;-49
2022/05/27 06:23:04;;;;;;;1.40;0.45;;;24.80;45.40;;;;;;5043521;28;20040;-48
2022/05/27 06:25:30;;;;;;;1.02;0.55;;;24.80;45.30;;;;;;5043542;28;20029;-49
2022/05/27 06:34:23;;;;;;;2.05;0.60;;;24.80;45.30;;;;;;5043219;28;20250;-49
2022/05/27 06:36:11;;;;;;;1.38;0.40;;;24.80;45.20;;;;;;5042725;28;20056;-48
2022/05/27 06:38:37;;;;;;;1.38;0.52;;;24.80;45.20;;;;;;5043047;28;20092;-49
2022/05/27 06:41:04;;;;;;;1.95;0.82;;;24.90;45.30;;;;;;5044145;28;20441;-48
2022/05/27 06:43:32;;;;;;;2.45;0.65;;;24.90;45.30;;;;;;5044298;28;20116;-48
2022/05/27 06:45:58;;;;;;;5.45;1.35;;;24.80;45.20;;;;;;5044631;28;20173;-47
2022/05/27 06:48:25;;;;;;;2.08;0.70;;;24.80;45.10;;;;;;5044348;28;20037;-47
2022/05/27 06:50:51;;;;;;;2.88;1.00;;;24.90;45.20;;;;;;5043848;28;20032;-49
2022/05/27 06:53:16;;;;;;;3.55;0.90;;;24.90;45.30;;;;;;5043215;28;20020;-48
2022/05/27 06:55:51;;;;;;;2.92;0.77;;;24.90;45.30;;;;;;5043974;28;20300;-49
2022/05/27 06:58:17;;;;;;;2.25;0.75;;;24.90;45.40;;;;;;5023230;28;20043;-47
2022/05/27 07:00:43;;;;;;;2.95;0.90;;;24.90;45.40;;;;;;5043749;28;20495;-46
2022/05/27 07:03:08;;;;;;;1.13;0.52;;;24.90;45.40;;;;;;5043463;28;20029;-48
2022/05/27 07:05:35;;;;;;;1.85;0.77;;;24.90;45.60;;;;;;5043325;28;20047;-48
2022/05/27 07:08:05;;;;;;;3.55;0.88;;;24.90;45.60;;;;;;5042197;28;20039;-48
2022/05/27 07:10:31;;;;;;;2.30;0.88;;;24.90;45.60;;;;;;5043365;28;20082;-49
2022/05/27 07:12:59;;;;;;;2.92;0.80;;;24.90;45.80;;;;;;5041973;28;20087;-46
2022/05/27 07:15:29;;;;;;;2.60;0.98;;;24.90;46.30;;;;;;5043459;28;20114;-48
2022/05/27 07:17:56;;;;;;;2.38;0.73;;;24.90;46.10;;;;;;5043311;28;20400;-46
2022/05/27 07:20:23;;;;;;;3.88;0.90;;;25.00;46.30;;;;;;5044089;28;20524;-48
2022/05/27 07:22:49;;;;;;;1.65;0.55;;;25.00;46.20;;;;;;5043115;28;20040;-49
2022/05/27 07:25:15;;;;;;;4.45;1.10;;;25.00;46.30;;;;;;5043707;28;20098;-47
2022/05/27 07:27:42;;;;;;;3.60;0.93;;;25.00;46.30;;;;;;5043556;28;20537;-46
2022/05/27 07:30:14;;;;;;;3.50;1.33;;;25.00;46.10;;;;;;5017185;28;20104;-47
2022/05/27 07:32:40;;;;;;;;;;;25.00;46.20;;;;;;5024564;28;20017;-48
2022/05/27 07:35:07;;;;;;;2.25;0.60;;;25.00;46.00;;;;;;5024448;28;20620;-47
2022/05/27 07:37:33;;;;;;;2.30;0.80;;;25.00;46.10;;;;;;5023968;28;20029;-47
2022/05/27 07:39:59;;;;;;;3.00;0.90;;;25.00;46.20;;;;;;5042165;28;20079;-46
2022/05/27 07:42:25;;;;;;;3.65;0.70;;;25.00;46.10;;;;;;5043430;28;20113;-46
2022/05/27 07:44:50;;;;;;;2.83;0.68;;;25.00;46.10;;;;;;5043503;28;20056;-47
2022/05/27 07:47:17;;;;;;;3.08;0.90;;;25.10;45.90;;;;;;5043928;28;20044;-46
2022/05/27 07:49:43;;;;;;;3.17;0.80;;;25.10;46.00;;;;;;5043296;28;20086;-46
2022/05/27 07:52:09;;;;;;;1.98;0.65;;;25.10;45.90;;;;;;5044027;28;20044;-44
2022/05/27 07:54:35;;;;;;;1.95;0.90;;;25.10;45.90;;;;;;5042796;28;20476;-47
2022/05/27 07:57:02;;;;;;;3.30;0.93;;;25.10;45.80;;;;;;5043767;28;20041;-46
2022/05/27 07:59:28;;;;;;;2.85;0.85;;;25.10;45.80;;;;;;5043777;28;20040;-47
2022/05/27 08:01:54;;;;;;;3.67;1.10;;;25.20;45.60;;;;;;5043728;28;20032;-46
2022/05/27 08:04:20;;;;;;;2.85;0.82;;;25.20;45.60;;;;;;5042576;28;20052;-46
2022/05/27 08:06:45;;;;;;;2.63;0.82;;;25.20;45.60;;;;;;5043076;28;20403;-46
2022/05/27 08:09:13;;;;;;;3.75;0.80;;;25.20;45.60;;;;;;5043882;28;20344;-47
2022/05/27 08:11:39;;;;;;;2.40;0.68;;;25.20;45.50;;;;;;5043726;28;20560;-46
2022/05/27 08:14:06;;;;;;;3.35;0.77;;;25.20;45.50;;;;;;5042704;28;20688;-47
2022/05/27 08:16:33;;;;;;;2.33;0.73;;;25.20;45.40;;;;;;5042928;28;20078;-47
2022/05/27 08:19:00;;;;;;;4.80;0.90;;;25.20;45.40;;;;;;5042755;28;20028;-49
2022/05/27 08:21:26;;;;;;;3.88;1.08;;;25.20;45.40;;;;;;5043471;28;20056;-47
2022/05/27 08:23:52;;;;;;;3.67;1.02;;;25.20;45.30;;;;;;5042637;28;20025;-46
2022/05/27 08:26:18;;;;;;;5.45;1.30;;;25.20;45.50;;;;;;5042867;28;20378;-46
2022/05/27 08:28:44;;;;;;;4.38;0.70;;;25.30;45.30;;;;;;5042533;28;20033;-46
2022/05/27 08:31:10;;;;;;;3.25;1.20;;;25.30;45.30;;;;;;5043643;28;20029;-45
2022/05/27 08:39:10;;;;;;;3.08;0.90;;;25.30;45.30;;;;;;5042082;28;20035;-46
2022/05/27 08:41:49;;;;;;;2.03;0.75;;;25.30;45.10;;;;;;5043133;28;20025;-46
2022/05/27 08:44:37;;;;;;;3.78;0.80;;;25.30;45.20;;;;;;5028178;28;20032;-49
2022/05/27 08:47:16;;;;;;;1.88;0.70;;;25.30;45.30;;;;;;5046999;28;20575;-49
2022/05/27 08:49:46;;;;;;;1.67;0.88;;;25.30;45.10;;;;;;5046944;28;20556;-48
2022/05/27 08:52:29;;;;;;;4.22;0.77;;;25.30;44.80;;;;;;5046737;28;20018;-48
2022/05/27 08:55:06;;;;;;;2.25;0.50;;;25.30;45.30;;;;;;5046751;28;20094;-47
2022/05/27 09:00:24;;;;;;;2.00;0.70;;;25.40;45.50;;;;;;5046276;28;20060;-47
2022/05/27 09:03:01;;;;;;;2.83;0.80;;;25.40;45.20;;;;;;5046182;28;20097;-47
2022/05/27 09:05:44;;;;;;;2.05;0.60;;;25.40;44.90;;;;;;5046683;28;20033;-48
2022/05/27 09:08:30;;;;;;;2.88;0.80;;;25.40;45.00;;;;;;5046261;28;20029;-48
2022/05/27 09:11:26;;;;;;;1.08;0.50;;;25.40;44.70;;;;;;5045860;28;20033;-47
2022/05/27 09:14:13;;;;;;;2.80;0.70;;;25.40;44.90;;;;;;5046044;28;20025;-47
2022/05/27 09:17:06;;;;;;;1.80;0.50;;;25.40;44.60;;;;;;5028710;28;20152;-46
2022/05/27 09:19:50;;;;;;;1.35;0.60;;;25.40;44.50;;;;;;5046867;28;20025;-47
2022/05/27 09:22:38;;;;;;;1.38;0.43;;;25.40;44.40;;;;;;5045156;28;20029;-46
2022/05/27 09:25:04;;;;;;;1.48;0.47;;;25.40;44.40;;;;;;5045262;28;20033;-46
2022/05/27 09:27:58;;;;;;;1.55;0.60;;;25.40;44.00;;;;;;5045088;28;20043;-46
2022/05/27 09:30:24;;;;;;;1.55;0.65;;;25.40;44.00;;;;;;5045466;28;20028;-46
2022/05/27 09:32:58;;;;;;;1.45;0.55;;;25.40;44.00;;;;;;5045518;28;20074;-45
2022/05/27 09:35:36;;;;;;;2.33;0.75;;;25.40;44.00;;;;;;5046406;28;20113;-47
2022/05/27 09:38:06;;;;;;;1.67;0.47;;;25.40;43.90;;;;;;5046100;28;20033;-46
2022/05/27 09:40:46;;;;;;;1.75;0.63;;;25.40;43.80;;;;;;5045829;28;20073;-46
2022/05/27 09:43:15;;;;;;;1.50;0.50;;;25.40;43.90;;;;;;5045302;28;20107;-45
2022/05/27 09:45:43;;;;;;;1.15;0.45;;;25.40;43.80;;;;;;5045361;28;20071;-46
2022/05/27 09:48:10;;;;;;;1.42;0.40;;;25.40;43.80;;;;;;5045224;28;20506;-46
2022/05/27 09:50:39;;;;;;;2.40;0.50;;;25.40;43.70;;;;;;5026869;28;20033;-46
2022/05/27 09:53:07;;;;;;;0.63;0.22;;;25.30;43.70;;;;;;5044334;28;20037;-47
2022/05/27 09:55:50;;;;;;;1.42;0.40;;;25.30;43.60;;;;;;5044524;28;20028;-46
2022/05/27 09:58:22;;;;;;;;;;;25.30;43.60;;;;;;5045417;28;20029;-45
2022/05/27 10:00:49;;;;;;;1.60;0.40;;;25.30;43.70;;;;;;5045111;28;19913;-46
2022/05/27 10:03:22;;;;;;;1.38;0.40;;;25.30;43.70;;;;;;5044928;28;20024;-46
2022/05/27 10:06:05;;;;;;;1.83;0.50;;;25.30;43.70;;;;;;5045014;28;20029;-45
2022/05/27 10:08:35;;;;;;;1.48;0.50;;;25.30;43.70;;;;;;5045122;28;20029;-47
2022/05/27 10:11:08;;;;;;;2.58;0.88;;;25.30;43.70;;;;;;5045533;28;20049;-47
2022/05/27 10:13:39;;;;;;;1.73;0.60;;;25.30;43.60;;;;;;5044176;28;20056;-47
2022/05/27 10:16:25;;;;;;;2.47;0.70;;;25.30;43.60;;;;;;5044678;28;20432;-46
2022/05/27 10:19:08;;;;;;;2.00;0.50;;;25.30;43.60;;;;;;5045241;28;20036;-47
2022/05/27 10:21:57;;;;;;;0.80;0.50;;;25.30;43.60;;;;;;5043473;28;20037;-46
2022/05/27 10:24:30;;;;;;;1.27;0.50;;;25.30;43.70;;;;;;5044623;28;20035;-46
2022/05/27 10:27:00;;;;;;;1.10;0.50;;;25.30;43.50;;;;;;5045129;28;20500;-46
2022/05/27 10:29:26;;;;;;;1.63;0.55;;;25.30;43.50;;;;;;5044484;28;20123;-47
2022/05/27 10:31:55;;;;;;;1.23;0.32;;;25.30;43.40;;;;;;5044455;28;20105;-46
2022/05/27 10:34:40;;;;;;;1.77;0.50;;;25.30;43.40;;;;;;5043204;28;20064;-47
2022/05/27 10:37:12;;;;;;;2.13;0.60;;;25.20;44.30;;;;;;5044394;28;20025;-49
2022/05/27 10:39:44;;;;;;;;;;;25.30;46.00;;;;;;5045123;28;20090;-49
2022/05/27 10:42:23;;;;;;;1.40;0.45;;;25.30;45.20;;;;;;5044820;28;19919;-50
2022/05/27 10:45:10;;;;;;;2.58;0.50;;;25.30;45.10;;;;;;5043869;28;20725;-52
2022/05/27 10:47:54;;;;;;;2.55;0.60;;;25.30;45.20;;;;;;5024835;28;20033;-49
2022/05/27 10:50:23;;;;;;;2.05;0.60;;;25.20;45.20;;;;;;5040488;28;20040;-49
2022/05/27 10:53:13;;;;;;;1.75;0.40;;;25.30;45.20;;;;;;5044299;28;20036;-48
2022/05/27 10:56:15;;;;;;;1.33;0.40;;;25.30;45.20;;;;;;5043395;28;20032;-48
2022/05/27 11:02:10;;;;;;;1.13;0.40;;;25.30;45.10;;;;;;5044754;28;20075;-49
2022/05/27 11:04:48;;;;;;;2.58;0.60;;;25.30;44.90;;;;;;5043639;28;20025;-50
2022/05/27 11:07:19;;;;;;;1.55;0.50;;;25.30;45.00;;;;;;5044879;28;20037;-49
2022/05/27 11:10:00;;;;;;;0.95;0.28;;;25.20;45.10;;;;;;5044262;28;20119;-50
2022/05/27 11:15:51;;;;;;;1.20;0.40;;;25.30;44.90;;;;;;5023323;28;20107;-50
2022/05/27 11:18:36;;;;;;;2.55;0.52;;;25.30;45.30;;;;;;5028765;28;20033;-49
2022/05/27 11:21:25;;;;;;;4.85;1.40;;;25.30;45.20;;;;;;5039489;28;20032;-47
2022/05/27 11:24:13;;;;;;;3.80;0.70;;;25.30;45.10;;;;;;5043227;28;20114;-47
2022/05/27 11:26:54;;;;;;;3.92;0.82;;;25.30;44.90;;;;;;5046974;28;20121;-48
2022/05/27 11:29:35;;;;;;;4.63;0.52;;;25.30;45.00;;;;;;5025212;28;20039;-49
2022/05/27 11:32:06;;;;;;;2.28;0.63;;;25.40;44.90;;;;;;5043146;28;20025;-49
2022/05/27 11:34:40;;;;;;;3.17;1.10;;;25.40;44.70;;;;;;5042347;28;20064;-48
2022/05/27 11:37:06;;;;;;;3.05;0.68;;;25.40;44.70;;;;;;5055956;28;20123;-49
2022/05/27 11:39:51;;;;;;;1.60;0.50;;;25.40;44.60;;;;;;5058052;28;20139;-49
2022/05/27 11:42:19;;;;;;;1.50;0.45;;;25.40;44.60;;;;;;5052531;28;20094;-48
2022/05/27 11:44:53;;;;;;;1.70;0.60;;;25.40;44.60;;;;;;5042039;28;20056;-48
2022/05/27 11:47:49;;;;;;;2.30;0.70;;;25.40;44.50;;;;;;5044367;28;20170;-47
2022/05/27 11:50:27;;;;;;;1.88;0.30;;;25.40;44.40;;;;;;5043621;28;20236;-48
2022/05/27 11:53:29;;;;;;;1.50;0.52;;;25.40;44.40;;;;;;5043682;28;20412;-48
2022/05/27 11:56:03;;;;;;;2.88;0.75;;;25.40;44.30;;;;;;4962283;28;20073;-49
2022/05/27 11:58:50;;;;;;;1.45;0.52;;;25.40;44.30;;;;;;5021097;28;20602;-48
2022/05/27 12:01:35;;;;;;;2.03;0.70;;;25.40;44.20;;;;;;5042284;28;20037;-47
2022/05/27 12:04:00;;;;;;;1.90;0.68;;;25.40;44.30;;;;;;5042312;28;20533;-48
2022/05/27 12:06:36;;;;;;;1.10;0.50;;;25.50;44.30;;;;;;5042574;28;20037;-47
2022/05/27 12:09:20;;;;;;;2.00;0.40;;;25.40;44.20;;;;;;5037321;28;20077;-47
2022/05/27 12:11:51;;;;;;;2.55;0.50;;;25.50;44.20;;;;;;5033947;28;20067;-47
2022/05/27 12:14:26;;;;;;;2.63;0.75;;;25.50;44.20;;;;;;5035330;28;20040;-47
2022/05/27 12:16:52;;;;;;;2.25;0.60;;;25.50;44.30;;;;;;5039627;28;20055;-47
2022/05/27 12:19:31;;;;;;;2.60;0.80;;;25.50;44.50;;;;;;5036984;28;20594;-48
2022/05/27 12:22:21;;;;;;;2.25;0.70;;;25.50;44.50;;;;;;5037035;28;20028;-49
2022/05/27 12:24:51;;;;;;;3.70;0.85;;;25.50;44.40;;;;;;5042043;28;20021;-48
2022/05/27 12:27:19;;;;;;;1.80;0.63;;;25.50;44.50;;;;;;5042187;28;20527;-49
2022/05/27 12:29:48;;;;;;;2.10;0.80;;;25.60;44.50;;;;;;5041524;28;20037;-49
2022/05/27 12:32:17;;;;;;;5.00;0.85;;;25.60;44.50;;;;;;5021211;28;20033;-49
2022/05/27 12:34:45;;;;;;;2.35;0.65;;;25.60;44.70;;;;;;5030186;28;20025;-47
2022/05/27 12:37:21;;;;;;;2.13;0.50;;;25.60;45.30;;;;;;5041748;28;20053;-48
2022/05/27 12:39:49;;;;;;;1.88;0.60;;;25.60;45.20;;;;;;5028635;28;20641;-48
2022/05/27 12:42:20;;;;;;;2.13;0.70;;;25.60;45.10;;;;;;5038880;28;20889;-49
2022/05/27 12:44:47;;;;;;;2.58;0.65;;;25.60;45.20;;;;;;5037558;28;20481;-47
2022/05/27 12:47:18;;;;;;;2.83;0.60;;;25.60;45.50;;;;;;5034678;28;20064;-49
2022/05/27 12:49:48;;;;;;;2.22;0.63;;;25.60;45.20;;;;;;5041358;28;20175;-48
2022/05/27 12:52:29;;;;;;;2.20;0.73;;;25.70;45.10;;;;;;5040156;28;20013;-49
2022/05/27 12:55:07;;;;;;;1.65;0.50;;;25.70;45.10;;;;;;5041941;28;20028;-50
2022/05/27 13:00:57;;;;;;;2.45;0.40;;;25.70;45.00;;;;;;4960920;28;20039;-51
2022/05/27 13:03:53;;;;;;;0.88;0.40;;;25.70;45.70;;;;;;4980446;28;20375;-47
2022/05/27 13:06:25;;;;;;;4.65;0.70;;;25.80;45.00;;;;;;5027580;28;20610;-47
2022/05/27 13:08:53;;;;;;;2.25;0.52;;;25.80;45.10;;;;;;5040972;28;20032;-48
2022/05/27 13:14:03;;;;;;;2.78;0.88;;;25.80;45.00;;;;;;5191717;22;20278;-56
2022/05/27 13:16:50;;;;;;;3.05;0.93;;;25.90;44.70;;;;;;5024865;28;20033;-53
2022/05/27 13:19:49;;;;;;;2.28;0.60;;;25.90;44.50;;;;;;5019472;28;20068;-53
2022/05/27 13:22:49;;;;;;;1.60;0.47;;;25.90;44.50;;;;;;4986760;28;20084;-53
2022/05/27 13:25:29;;;;;;;3.10;0.60;;;25.90;44.50;;;;;;5019253;28;20025;-53
2022/05/27 13:27:58;;;;;;;1.80;0.65;;;25.90;44.40;;;;;;5022490;28;20593;-53
2022/05/27 13:30:49;;;;;;;1.67;0.60;;;25.90;44.30;;;;;;5021470;28;20029;-56
2022/05/27 13:33:22;;;;;;;3.22;1.00;;;26.00;44.70;;;;;;5010511;28;20054;-55
2022/05/27 13:35:49;;;;;;;2.83;0.68;;;25.90;44.20;;;;;;5025873;28;20788;-55
2022/05/27 13:38:23;;;;;;;2.22;0.63;;;26.00;44.60;;;;;;5022045;28;20079;-55
2022/05/27 13:40:49;;;;;;;1.63;0.45;;;26.00;44.80;;;;;;5025781;28;20088;-55
2022/05/27 13:43:18;;;;;;;0.82;0.38;;;26.00;44.70;;;;;;5025367;28;20029;-55
2022/05/27 13:45:52;;;;;;;1.23;0.43;;;26.00;44.60;;;;;;5007109;28;20080;-56
2022/05/27 13:48:39;;;;;;;1.15;0.40;;;26.00;44.50;;;;;;5006567;28;20349;-56